Terminal Aerodrome Forecast
Issued by NWS Wakefield, VA

Home | Current Version | Previous Version | Text Only | Print | Product List | Glossary On
Versions: 1 2 3 4 5 6 7 8 9 10 11 12 13 14 15
000
FTUS41 KAKQ 211724
TAFSBY
TAF
KSBY 211724Z 2118/2218 15008KT P6SM BKN250
     FM220000 VRB03KT P6SM BKN250
     FM221100 VRB03KT 5SM BR BKN100
     FM221500 21007KT P6SM BKN050=

USA.gov is the U.S. government's official web portal to all federal, state and local government web resources and services.